Time;durP1;ratioP1;P1;durP2;ratioP2;P2;SDS_P1;SDS_P2;PMS_P1;PMS_P2;Temp;Humidity;BMP_temperature;BMP_pressure;BME280_temperature;BME280_humidity;BME280_pressure;Samples;Min_cycle;Max_cycle;Signal;HPM_P1;HPM_P2
2022/04/10 00:02:15;;;;;;;5.80;2.88;;;4.60;53.80;;;;;;5113889;28;20287;-63
2022/04/10 00:04:43;;;;;;;5.70;2.42;;;4.60;53.80;;;;;;5112695;28;20234;-63
2022/04/10 00:07:11;;;;;;;4.57;2.58;;;4.50;54.00;;;;;;5113593;28;20188;-63
2022/04/10 00:09:38;;;;;;;7.78;2.90;;;4.50;54.10;;;;;;5097675;28;20648;-63
2022/04/10 00:12:06;;;;;;;3.83;2.40;;;4.60;54.10;;;;;;5093652;28;20267;-63
2022/04/10 00:14:33;;;;;;;5.18;3.10;;;4.60;54.30;;;;;;5094139;28;20648;-62
2022/04/10 00:17:02;;;;;;;4.68;2.75;;;4.60;54.30;;;;;;5093264;28;20233;-62
2022/04/10 00:19:30;;;;;;;4.63;2.85;;;4.70;54.20;;;;;;5106177;28;20226;-63
2022/04/10 00:22:05;;;;;;;3.15;2.45;;;4.80;54.00;;;;;;5113237;28;20620;-63
2022/04/10 00:24:32;;;;;;;4.93;2.67;;;4.80;54.10;;;;;;5100086;28;20181;-63
2022/04/10 00:26:59;;;;;;;10.18;2.97;;;4.70;54.10;;;;;;5092948;28;20193;-63
2022/04/10 00:29:29;;;;;;;3.88;2.53;;;4.80;54.10;;;;;;5104084;28;20238;-63
2022/04/10 00:31:56;;;;;;;6.20;2.80;;;4.80;54.20;;;;;;5113395;28;20238;-63
2022/04/10 00:34:25;;;;;;;3.90;2.45;;;4.90;54.40;;;;;;5102169;28;20212;-63
2022/04/10 00:36:52;;;;;;;3.42;2.50;;;4.90;54.70;;;;;;5092822;28;20189;-63
2022/04/10 00:39:19;;;;;;;3.90;2.47;;;4.90;54.40;;;;;;5093841;28;20256;-63
2022/04/10 00:41:47;;;;;;;8.50;4.03;;;4.90;54.30;;;;;;5092639;28;20275;-63
2022/04/10 00:44:14;;;;;;;5.50;2.90;;;4.90;54.40;;;;;;5100683;28;20380;-63
2022/04/10 00:46:42;;;;;;;3.70;2.60;;;4.90;54.40;;;;;;5103314;28;20185;-63
2022/04/10 00:49:09;;;;;;;6.40;2.45;;;4.80;54.40;;;;;;5099599;28;20271;-63
2022/04/10 00:51:43;;;;;;;5.30;2.72;;;4.80;54.60;;;;;;5113128;28;20532;-63
2022/04/10 00:54:12;;;;;;;3.45;2.20;;;4.80;54.70;;;;;;5105991;28;20193;-63
2022/04/10 00:56:43;;;;;;;4.82;2.25;;;4.90;54.90;;;;;;5092696;28;20334;-63
2022/04/10 00:59:11;;;;;;;3.65;2.10;;;4.90;54.80;;;;;;5096708;28;20212;-63
2022/04/10 01:01:44;;;;;;;3.20;2.30;;;4.90;54.70;;;;;;5092910;28;20193;-63
2022/04/10 01:04:12;;;;;;;3.53;2.63;;;4.90;54.90;;;;;;5097162;28;20188;-63
2022/04/10 01:06:41;;;;;;;6.63;2.00;;;4.90;54.80;;;;;;5112855;28;20227;-63
2022/04/10 01:09:09;;;;;;;6.50;2.72;;;4.90;55.20;;;;;;5107834;28;20215;-65
2022/04/10 01:11:37;;;;;;;3.95;2.42;;;4.80;55.10;;;;;;5092580;28;20200;-63
2022/04/10 01:14:05;;;;;;;3.50;2.30;;;4.60;55.50;;;;;;5095517;28;20188;-62
2022/04/10 01:16:33;;;;;;;4.93;2.70;;;4.50;56.10;;;;;;5112202;28;20231;-63
2022/04/10 01:19:03;;;;;;;5.55;3.60;;;4.40;56.50;;;;;;5109683;28;20285;-63
2022/04/10 01:21:39;;;;;;;5.03;2.38;;;4.30;57.10;;;;;;5092440;28;20188;-63
2022/04/10 01:24:10;;;;;;;3.78;2.30;;;4.30;57.40;;;;;;5094539;28;20260;-62
2022/04/10 01:26:37;;;;;;;6.00;2.60;;;4.30;57.80;;;;;;5112796;28;20243;-62
2022/04/10 01:29:07;;;;;;;3.83;2.53;;;4.20;58.30;;;;;;5093817;28;20272;-62
2022/04/10 01:31:36;;;;;;;4.30;2.50;;;4.20;58.10;;;;;;5092083;28;21058;-63
2022/04/10 01:34:07;;;;;;;3.28;2.30;;;4.30;58.20;;;;;;5109642;28;20184;-64
2022/04/10 01:36:36;;;;;;;3.80;2.70;;;4.30;58.10;;;;;;5112331;28;20193;-62
2022/04/10 01:39:06;;;;;;;3.88;2.60;;;4.30;58.30;;;;;;5094790;28;20280;-63
2022/04/10 01:41:35;;;;;;;7.95;3.30;;;4.30;58.40;;;;;;5091971;28;20670;-63
2022/04/10 01:44:04;;;;;;;5.05;2.80;;;4.40;58.30;;;;;;5108307;28;20184;-63
2022/04/10 01:46:32;;;;;;;3.03;2.20;;;4.40;58.10;;;;;;5112367;28;20192;-63
2022/04/10 01:49:00;;;;;;;5.70;2.85;;;4.50;58.10;;;;;;5096425;28;20185;-63
2022/04/10 01:51:27;;;;;;;4.28;2.80;;;4.50;58.10;;;;;;5094248;28;20181;-63
2022/04/10 01:53:55;;;;;;;5.15;2.75;;;4.40;58.20;;;;;;5112097;28;20253;-64
2022/04/10 01:56:23;;;;;;;6.25;4.25;;;4.50;58.30;;;;;;5106392;28;20185;-63
2022/04/10 01:58:53;;;;;;;6.07;2.50;;;4.40;58.30;;;;;;5092030;28;20556;-62
2022/04/10 02:01:21;;;;;;;4.35;2.40;;;4.40;58.70;;;;;;5096186;28;20612;-63
2022/04/10 02:03:50;;;;;;;3.35;2.47;;;4.30;58.80;;;;;;5112107;28;20185;-62
2022/04/10 02:06:18;;;;;;;3.55;2.45;;;4.30;59.10;;;;;;5108290;28;20584;-63
2022/04/10 02:08:45;;;;;;;4.15;2.65;;;4.30;59.10;;;;;;5091539;28;20235;-63
2022/04/10 02:11:20;;;;;;;3.78;2.60;;;4.30;59.10;;;;;;5093626;28;20901;-63
2022/04/10 02:13:49;;;;;;;4.63;2.40;;;4.30;59.30;;;;;;5112065;28;20241;-64
2022/04/10 02:16:18;;;;;;;3.65;2.53;;;4.20;59.30;;;;;;5110131;28;20203;-62
2022/04/10 02:18:47;;;;;;;3.75;2.58;;;4.10;59.60;;;;;;5095732;28;20193;-63
2022/04/10 02:21:15;;;;;;;5.53;2.80;;;4.10;59.90;;;;;;5113466;28;20192;-63
2022/04/10 02:23:45;;;;;;;3.78;2.65;;;4.10;59.90;;;;;;5115784;28;20192;-63
2022/04/10 02:26:13;;;;;;;5.20;3.10;;;4.10;60.00;;;;;;5098056;28;20639;-62
2022/04/10 02:28:41;;;;;;;8.77;3.30;;;4.20;59.90;;;;;;5095411;28;20227;-62
2022/04/10 02:31:08;;;;;;;4.20;3.00;;;4.20;60.00;;;;;;5111306;28;20272;-63
2022/04/10 02:33:37;;;;;;;4.72;3.00;;;4.20;60.10;;;;;;5115782;28;20188;-63
2022/04/10 02:36:05;;;;;;;3.90;2.38;;;4.30;61.00;;;;;;5100282;28;20196;-63
2022/04/10 02:38:32;;;;;;;3.15;2.22;;;4.40;60.00;;;;;;5094942;28;20189;-63
2022/04/10 02:40:59;;;;;;;6.18;3.10;;;4.40;59.70;;;;;;5108382;28;20265;-63
2022/04/10 02:43:34;;;;;;;7.45;4.63;;;4.50;59.60;;;;;;5115419;28;20207;-63
2022/04/10 02:46:01;;;;;;;5.05;3.15;;;4.60;59.80;;;;;;5101722;28;20279;-63
2022/04/10 02:48:28;;;;;;;5.57;3.05;;;4.70;59.60;;;;;;5094837;28;20193;-63
2022/04/10 02:50:56;;;;;;;4.60;2.70;;;4.70;59.40;;;;;;5106914;28;20245;-63
2022/04/10 02:53:23;;;;;;;4.85;2.88;;;4.80;59.40;;;;;;5115361;28;20245;-63
2022/04/10 02:55:51;;;;;;;4.00;2.78;;;4.90;59.20;;;;;;5103467;28;20185;-63
2022/04/10 02:58:20;;;;;;;5.88;3.60;;;4.80;59.90;;;;;;5094710;28;20189;-63
2022/04/10 03:00:47;;;;;;;5.63;3.35;;;4.90;61.20;;;;;;5103995;28;20212;-68
2022/04/10 03:03:15;;;;;;;4.95;3.28;;;4.90;62.40;;;;;;5115059;28;20283;-63
2022/04/10 03:05:42;;;;;;;4.13;3.03;;;4.90;62.80;;;;;;5106070;28;20496;-63
2022/04/10 03:08:11;;;;;;;4.97;2.80;;;5.00;63.00;;;;;;5094673;28;20204;-63
2022/04/10 03:10:38;;;;;;;5.35;3.33;;;5.00;63.30;;;;;;5095450;28;20636;-63
2022/04/10 03:13:05;;;;;;;3.92;2.60;;;5.10;63.50;;;;;;5094542;28;20604;-63
2022/04/10 03:15:33;;;;;;;6.55;3.00;;;5.10;63.20;;;;;;5095533;28;20193;-63
2022/04/10 03:18:01;;;;;;;3.95;3.13;;;5.10;63.40;;;;;;5094377;28;20290;-63
2022/04/10 03:20:28;;;;;;;6.07;3.30;;;5.10;63.40;;;;;;5097588;28;20573;-63
2022/04/10 03:22:55;;;;;;;7.50;3.65;;;5.00;63.60;;;;;;5103150;28;20530;-63
2022/04/10 03:25:24;;;;;;;10.07;4.78;;;5.00;63.90;;;;;;5093793;28;20242;-66
2022/04/10 03:27:52;;;;;;;7.60;4.53;;;5.00;63.70;;;;;;5096314;28;20181;-63
2022/04/10 03:30:19;;;;;;;7.78;4.72;;;5.00;63.90;;;;;;5114536;28;20241;-63
2022/04/10 03:32:46;;;;;;;7.40;3.80;;;5.00;64.30;;;;;;5108131;28;20257;-63
2022/04/10 03:35:13;;;;;;;5.68;3.40;;;4.90;63.90;;;;;;5093982;28;20229;-63
2022/04/10 03:37:41;;;;;;;7.93;3.90;;;4.80;64.10;;;;;;5098169;28;20237;-65
2022/04/10 03:40:09;;;;;;;5.72;3.55;;;4.90;64.50;;;;;;5114310;27;20269;-63
2022/04/10 03:42:41;;;;;;;4.38;3.78;;;4.80;64.30;;;;;;5110487;28;20185;-62
2022/04/10 03:45:10;;;;;;;7.25;4.18;;;4.80;64.50;;;;;;5093917;28;20285;-63
2022/04/10 03:47:37;;;;;;;8.20;4.22;;;4.80;64.70;;;;;;5096786;28;20544;-63
2022/04/10 03:50:06;;;;;;;4.90;3.00;;;4.80;64.50;;;;;;5114403;28;20188;-63
2022/04/10 03:52:34;;;;;;;5.90;3.85;;;4.70;64.10;;;;;;5111888;28;20233;-63
2022/04/10 03:55:08;;;;;;;5.40;3.53;;;4.70;64.10;;;;;;5093775;28;20193;-63
2022/04/10 03:57:35;;;;;;;9.15;5.25;;;4.70;64.40;;;;;;5111070;28;20241;-63
2022/04/10 04:00:06;;;;;;;9.93;4.70;;;4.70;64.10;;;;;;5113764;28;20307;-64
2022/04/10 04:02:33;;;;;;;9.10;4.80;;;4.70;65.30;;;;;;5097023;28;20185;-63
2022/04/10 04:05:01;;;;;;;6.13;3.78;;;4.70;64.50;;;;;;5095220;28;20189;-63
2022/04/10 04:07:28;;;;;;;4.40;3.28;;;4.70;64.30;;;;;;5114081;28;20192;-63
2022/04/10 04:09:55;;;;;;;5.63;3.63;;;4.80;64.40;;;;;;5113384;28;20195;-62
2022/04/10 04:12:22;;;;;;;6.15;2.40;;;4.90;64.00;;;;;;5093694;28;20652;-63
2022/04/10 04:14:49;;;;;;;4.78;3.03;;;4.90;63.70;;;;;;5093514;28;20280;-63
2022/04/10 04:17:18;;;;;;;3.55;2.90;;;5.00;63.50;;;;;;5112968;28;20223;-64
2022/04/10 04:19:49;;;;;;;6.05;3.47;;;5.00;63.10;;;;;;5114033;28;20216;-63
2022/04/10 04:22:16;;;;;;;5.63;3.22;;;5.10;64.30;;;;;;5094177;28;20246;-63
2022/04/10 04:24:46;;;;;;;6.05;2.95;;;5.10;63.50;;;;;;5105291;28;20184;-63
2022/04/10 04:27:13;;;;;;;6.70;3.25;;;5.10;63.50;;;;;;5113913;28;20192;-63
2022/04/10 04:29:40;;;;;;;5.68;2.95;;;5.10;63.50;;;;;;5102077;28;20193;-63
2022/04/10 04:32:09;;;;;;;3.22;2.47;;;5.10;63.50;;;;;;5093644;28;20185;-63
2022/04/10 04:34:37;;;;;;;6.90;4.20;;;5.10;63.20;;;;;;5103314;28;20188;-62
2022/04/10 04:37:04;;;;;;;6.32;3.35;;;5.10;63.00;;;;;;5113711;28;20188;-63
2022/04/10 04:39:32;;;;;;;4.53;2.78;;;5.00;62.80;;;;;;5103145;28;20230;-63
2022/04/10 04:41:59;;;;;;;6.88;2.92;;;5.00;62.60;;;;;;5093233;28;20222;-63
2022/04/10 04:44:26;;;;;;;4.25;2.47;;;4.80;62.70;;;;;;5100610;28;20195;-63
2022/04/10 04:46:55;;;;;;;4.07;2.50;;;4.70;62.90;;;;;;5113492;28;20199;-63
2022/04/10 04:49:22;;;;;;;5.05;2.63;;;4.50;63.30;;;;;;5106091;28;20192;-63
2022/04/10 04:51:51;;;;;;;3.65;2.60;;;4.40;63.70;;;;;;5093057;28;20197;-63
2022/04/10 04:54:18;;;;;;;3.85;2.35;;;4.40;64.20;;;;;;5098172;28;20659;-63
2022/04/10 04:56:45;;;;;;;10.82;2.47;;;4.40;64.60;;;;;;5113279;28;20561;-62
2022/04/10 04:59:14;;;;;;;4.88;2.40;;;4.40;64.70;;;;;;5107651;28;20196;-63
2022/04/10 05:01:42;;;;;;;5.45;2.45;;;4.30;64.90;;;;;;5092619;28;20627;-63
2022/04/10 05:04:09;;;;;;;2.90;2.20;;;4.30;64.80;;;;;;5096854;28;20264;-64
2022/04/10 05:06:40;;;;;;;6.03;2.92;;;4.30;64.80;;;;;;5113390;28;20235;-62
2022/04/10 05:09:08;;;;;;;11.05;3.55;;;4.30;65.20;;;;;;5111316;28;20237;-63
2022/04/10 05:11:37;;;;;;;4.57;3.20;;;4.40;65.80;;;;;;5112802;27;20192;-62
2022/04/10 05:14:04;;;;;;;5.50;2.53;;;4.40;65.50;;;;;;5107066;28;20284;-62
2022/04/10 05:16:31;;;;;;;4.95;3.50;;;4.50;65.40;;;;;;5092809;28;20189;-63
2022/04/10 05:18:58;;;;;;;3.67;3.05;;;4.60;65.00;;;;;;5113100;28;20192;-63
2022/04/10 05:21:26;;;;;;;4.95;3.20;;;4.60;65.10;;;;;;5113073;28;20228;-63
2022/04/10 05:23:53;;;;;;;5.55;3.60;;;4.70;65.00;;;;;;5092468;28;20188;-63
2022/04/10 05:26:22;;;;;;;4.68;2.70;;;4.70;64.50;;;;;;5092644;28;20189;-63
2022/04/10 05:28:49;;;;;;;8.32;3.42;;;4.80;64.80;;;;;;5110840;28;20188;-63
2022/04/10 05:31:18;;;;;;;3.60;2.70;;;4.90;64.70;;;;;;5112955;28;20198;-63
2022/04/10 05:33:45;;;;;;;5.50;2.40;;;5.00;64.60;;;;;;5094596;28;20643;-63
2022/04/10 05:36:13;;;;;;;4.22;2.90;;;5.00;64.00;;;;;;5092753;28;20185;-63
2022/04/10 05:38:40;;;;;;;4.40;2.65;;;5.00;64.00;;;;;;5108674;28;20654;-63
2022/04/10 05:41:07;;;;;;;4.07;2.80;;;5.00;63.70;;;;;;5112990;28;20624;-63
2022/04/10 05:43:36;;;;;;;6.43;3.33;;;5.10;63.70;;;;;;5110640;28;20192;-63
2022/04/10 05:46:03;;;;;;;4.10;2.38;;;5.30;63.90;;;;;;5112766;28;20192;-63
2022/04/10 05:48:31;;;;;;;5.32;3.55;;;5.30;63.40;;;;;;5098471;28;20189;-63
2022/04/10 05:50:58;;;;;;;3.83;2.90;;;5.40;63.70;;;;;;5094817;28;20192;-63
2022/04/10 05:53:26;;;;;;;4.25;3.05;;;5.40;62.90;;;;;;5112750;28;20620;-62
2022/04/10 05:55:53;;;;;;;4.32;3.13;;;5.40;62.80;;;;;;5116713;28;20192;-63
2022/04/10 05:58:20;;;;;;;4.75;2.83;;;5.40;62.60;;;;;;5100517;28;20265;-63
2022/04/10 06:00:48;;;;;;;11.40;4.03;;;5.50;63.00;;;;;;5096208;28;20216;-64
2022/04/10 06:03:15;;;;;;;14.05;8.57;;;5.50;63.30;;;;;;5110717;28;20181;-63
2022/04/10 06:05:43;;;;;;;8.32;5.50;;;5.60;63.60;;;;;;5116777;28;20199;-64
2022/04/10 06:08:10;;;;;;;6.97;4.20;;;5.70;63.50;;;;;;5102796;28;20557;-63
2022/04/10 06:10:37;;;;;;;6.38;3.45;;;5.70;63.10;;;;;;5095965;28;20239;-63
2022/04/10 06:13:08;;;;;;;7.28;4.35;;;5.80;62.80;;;;;;5107706;28;20180;-63
2022/04/10 06:15:35;;;;;;;6.50;4.03;;;5.90;62.20;;;;;;5116335;28;20199;-63
2022/04/10 06:18:04;;;;;;;16.17;7.63;;;5.90;62.00;;;;;;5100966;28;20255;-63
2022/04/10 06:20:31;;;;;;;6.13;4.18;;;6.00;62.00;;;;;;5094234;28;20221;-62
2022/04/10 06:22:59;;;;;;;6.50;4.22;;;6.00;61.80;;;;;;5093548;28;20189;-63
2022/04/10 06:25:26;;;;;;;6.95;5.30;;;6.10;61.90;;;;;;5093646;28;20291;-64
2022/04/10 06:27:53;;;;;;;6.13;5.53;;;6.20;62.30;;;;;;5093901;28;20185;-63
2022/04/10 06:30:21;;;;;;;7.15;5.00;;;6.20;62.40;;;;;;5094099;28;20196;-63
2022/04/10 06:32:48;;;;;;;7.80;4.60;;;6.20;61.80;;;;;;5094403;28;20184;-63
2022/04/10 06:35:18;;;;;;;5.75;4.30;;;6.30;62.00;;;;;;5094120;28;20193;-63
2022/04/10 06:37:45;;;;;;;5.53;3.70;;;6.40;61.80;;;;;;5093947;28;20551;-64
2022/04/10 06:40:13;;;;;;;4.10;3.33;;;6.40;61.10;;;;;;5093911;28;20234;-65
2022/04/10 06:42:41;;;;;;;5.20;3.95;;;6.40;61.00;;;;;;5094383;28;20181;-64
2022/04/10 06:45:09;;;;;;;5.40;4.10;;;6.50;61.20;;;;;;5093925;28;20262;-64
2022/04/10 06:47:36;;;;;;;7.22;3.90;;;6.60;60.40;;;;;;5093718;28;20196;-63
2022/04/10 06:50:04;;;;;;;6.43;4.57;;;6.60;59.60;;;;;;5093525;28;20544;-66
2022/04/10 06:52:32;;;;;;;6.95;3.63;;;6.70;59.50;;;;;;5093701;28;20180;-63
2022/04/10 06:54:59;;;;;;;7.88;3.78;;;6.80;59.50;;;;;;5093427;28;20200;-63
2022/04/10 06:57:26;;;;;;;5.25;3.40;;;6.90;59.00;;;;;;5093770;28;20193;-63
2022/04/10 06:59:53;;;;;;;4.72;4.13;;;7.00;59.00;;;;;;5093454;28;20185;-66
2022/04/10 07:02:21;;;;;;;6.40;3.60;;;7.10;58.70;;;;;;5088263;28;20571;-63
2022/04/10 07:04:48;;;;;;;5.65;3.35;;;7.20;58.00;;;;;;5089728;28;20192;-64
2022/04/10 07:07:15;;;;;;;7.40;3.53;;;7.20;57.70;;;;;;5093507;28;20280;-63
2022/04/10 07:09:44;;;;;;;6.03;3.33;;;7.30;57.60;;;;;;5096708;28;20189;-66
2022/04/10 07:12:11;;;;;;;6.78;3.58;;;7.20;57.60;;;;;;5089852;28;20212;-64
2022/04/10 07:14:39;;;;;;;5.40;3.85;;;7.30;57.70;;;;;;5092261;28;20193;-63
2022/04/10 07:17:06;;;;;;;7.63;4.60;;;7.40;58.10;;;;;;5092948;28;20225;-63
2022/04/10 07:19:33;;;;;;;7.70;4.60;;;7.50;58.00;;;;;;5092801;28;20197;-64
2022/04/10 07:24:46;;;;;;;5.35;4.45;;;7.70;56.90;;;;;;5093037;28;20314;-63
2022/04/10 07:27:13;;;;;;;4.43;3.50;;;7.80;57.10;;;;;;5092590;28;20242;-63
2022/04/10 07:29:40;;;;;;;5.38;4.13;;;7.90;57.70;;;;;;5092816;28;20189;-63
2022/04/10 07:32:09;;;;;;;6.70;4.80;;;8.10;57.00;;;;;;5092751;28;20556;-65
2022/04/10 07:34:36;;;;;;;5.45;3.80;;;8.30;56.50;;;;;;5076807;28;20633;-67
2022/04/10 07:37:03;;;;;;;5.82;4.97;;;8.30;55.00;;;;;;5084508;28;20215;-63
2022/04/10 07:39:33;;;;;;;6.30;5.07;;;8.30;54.50;;;;;;5091500;28;20246;-63
2022/04/10 07:42:05;;;;;;;4.68;3.75;;;8.30;54.70;;;;;;5092070;28;20266;-65
2022/04/10 07:44:32;;;;;;;5.18;3.70;;;8.40;54.50;;;;;;5092237;28;20679;-63
2022/04/10 07:49:44;;;;;;;5.43;3.88;;;8.50;53.40;;;;;;5090209;28;20204;-63
2022/04/10 07:52:11;;;;;;;7.97;3.35;;;8.50;53.50;;;;;;5092320;28;20185;-64
2022/04/10 07:54:39;;;;;;;5.78;3.47;;;8.50;53.60;;;;;;5091963;28;20235;-63
2022/04/10 07:57:08;;;;;;;7.97;3.95;;;8.60;54.50;;;;;;5092252;28;20193;-63
2022/04/10 07:59:35;;;;;;;7.43;4.65;;;8.90;54.80;;;;;;5092044;28;20185;-63
2022/04/10 08:02:03;;;;;;;5.28;4.03;;;9.60;54.10;;;;;;5090911;28;20607;-64
2022/04/10 08:04:30;;;;;;;5.47;3.35;;;10.50;51.20;;;;;;5092015;28;20189;-65
2022/04/10 08:06:57;;;;;;;6.43;4.20;;;12.10;52.90;;;;;;5087729;28;20200;-64
2022/04/10 08:09:24;;;;;;;6.18;3.80;;;14.70;45.00;;;;;;5091688;28;20284;-64
2022/04/10 08:11:51;;;;;;;9.27;4.35;;;15.30;41.60;;;;;;5091739;28;20204;-64
2022/04/10 08:14:20;;;;;;;8.03;3.97;;;16.60;40.10;;;;;;5093634;28;20228;-64
2022/04/10 08:16:47;;;;;;;4.93;3.47;;;17.60;39.60;;;;;;5088003;28;20496;-64
2022/04/10 08:19:14;;;;;;;6.70;4.73;;;19.80;36.40;;;;;;5091966;28;20440;-64
2022/04/10 08:21:41;;;;;;;5.47;4.67;;;19.60;29.60;;;;;;5091934;28;20956;-64
2022/04/10 08:24:09;;;;;;;4.00;3.20;;;18.90;33.10;;;;;;5088694;28;20439;-66
2022/04/10 08:26:36;;;;;;;6.53;3.40;;;20.90;30.90;;;;;;5093840;28;20445;-64
2022/04/10 08:29:04;;;;;;;5.17;3.30;;;22.90;28.10;;;;;;5092747;28;20443;-64
2022/04/10 08:31:32;;;;;;;5.57;2.93;;;24.50;28.40;;;;;;5092311;28;20492;-64
2022/04/10 08:33:59;;;;;;;3.10;2.53;;;25.20;22.70;;;;;;5093145;28;20442;-64
2022/04/10 08:36:26;;;;;;;4.80;3.40;;;24.10;22.00;;;;;;5099311;28;20495;-64
2022/04/10 08:38:54;;;;;;;3.80;3.00;;;22.50;21.10;;;;;;5091927;28;20550;-64
2022/04/10 08:41:23;;;;;;;7.07;3.30;;;20.60;21.80;;;;;;5093778;28;20490;-64
2022/04/10 08:43:53;;;;;;;6.63;3.87;;;18.70;22.20;;;;;;5091032;28;20447;-64
2022/04/10 08:46:21;;;;;;;5.70;3.20;;;17.30;23.70;;;;;;5090641;28;20504;-64
2022/04/10 08:48:50;;;;;;;10.20;3.93;;;16.10;24.00;;;;;;5090809;28;20443;-66
2022/04/10 08:51:17;;;;;;;5.30;2.90;;;15.30;25.00;;;;;;5090377;28;20443;-66
2022/04/10 08:53:48;;;;;;;4.80;3.73;;;14.70;26.00;;;;;;5093180;28;20439;-64
2022/04/10 08:56:15;;;;;;;4.37;3.20;;;15.30;30.50;;;;;;5093259;28;20485;-64
2022/04/10 08:58:42;;;;;;;4.50;2.70;;;16.70;27.30;;;;;;5092910;28;20508;-65
2022/04/10 09:01:12;;;;;;;4.67;3.00;;;16.80;25.50;;;;;;5091952;28;20992;-64
2022/04/10 09:03:39;;;;;;;7.33;3.33;;;17.20;28.60;;;;;;5088828;28;20439;-63
2022/04/10 09:06:11;;;;;;;6.10;3.10;;;17.70;27.60;;;;;;5090706;28;20469;-64
2022/04/10 09:08:39;;;;;;;3.80;2.30;;;17.40;24.10;;;;;;5093164;28;20499;-64
2022/04/10 09:11:07;;;;;;;5.27;2.70;;;18.70;26.20;;;;;;5088259;28;20454;-64
2022/04/10 09:13:35;;;;;;;3.60;2.40;;;21.80;26.80;;;;;;5091108;28;20439;-65
2022/04/10 09:16:16;;;;;;;4.07;2.83;;;25.20;21.60;;;;;;5094830;28;20436;-65
2022/04/10 09:18:51;;;;;;;5.77;3.57;;;27.80;20.60;;;;;;5095957;28;20434;-64
2022/04/10 09:21:22;;;;;;;3.10;2.00;;;28.60;16.50;;;;;;5094751;28;20990;-64
2022/04/10 09:23:59;;;;;;;3.87;2.40;;;26.80;15.10;;;;;;5093907;28;20439;-64
2022/04/10 09:26:27;;;;;;;4.10;2.80;;;24.70;15.50;;;;;;5092271;28;20446;-66
2022/04/10 09:28:55;;;;;;;5.00;2.70;;;22.70;16.40;;;;;;5092807;28;20522;-65
2022/04/10 09:31:27;;;;;;;4.47;2.50;;;21.10;17.90;;;;;;5094128;28;20542;-65
2022/04/10 09:33:54;;;;;;;6.10;3.00;;;20.40;19.80;;;;;;5094814;28;20495;-65
2022/04/10 09:36:38;;;;;;;4.77;3.23;;;20.60;20.50;;;;;;5090896;28;20443;-64
2022/04/10 09:39:08;;;;;;;3.83;2.40;;;20.70;20.20;;;;;;5092331;28;20439;-69
2022/04/10 09:41:36;;;;;;;4.20;3.20;;;20.80;19.90;;;;;;5091924;28;21018;-64
2022/04/10 09:44:20;;;;;;;3.27;2.10;;;20.60;19.80;;;;;;5093017;28;20446;-64
2022/04/10 09:46:59;;;;;;;2.67;1.77;;;21.10;21.30;;;;;;5093327;28;20442;-64
2022/04/10 09:49:30;;;;;;;4.50;1.93;;;24.80;21.70;;;;;;5094211;28;20439;-64
2022/04/10 09:52:07;;;;;;;5.13;2.10;;;27.50;16.00;;;;;;5091168;28;20442;-65
2022/04/10 09:54:36;;;;;;;2.90;1.87;;;26.20;14.20;;;;;;5095923;28;20439;-64
2022/04/10 09:57:04;;;;;;;4.73;2.03;;;24.10;14.00;;;;;;5094513;28;20529;-64
2022/04/10 09:59:37;;;;;;;3.90;2.20;;;22.30;15.30;;;;;;5092748;28;20857;-63
2022/04/10 10:02:06;;;;;;;7.60;2.90;;;20.80;16.80;;;;;;5091727;28;21011;-65
2022/04/10 10:04:37;;;;;;;3.80;2.43;;;20.10;19.00;;;;;;5093661;28;20434;-64
2022/04/10 10:07:09;;;;;;;4.80;2.47;;;19.90;19.00;;;;;;5091675;28;20538;-64
2022/04/10 10:09:37;;;;;;;3.30;2.67;;;19.40;19.10;;;;;;5093409;28;20439;-64
2022/04/10 10:12:05;;;;;;;3.43;2.40;;;19.00;19.30;;;;;;5093739;28;20437;-63
2022/04/10 10:14:34;;;;;;;4.47;2.97;;;18.70;20.00;;;;;;5089307;28;20427;-64
2022/04/10 10:17:03;;;;;;;4.70;2.93;;;18.30;20.60;;;;;;5091447;28;20466;-63
2022/04/10 10:19:34;;;;;;;4.37;2.60;;;18.00;20.70;;;;;;5094608;28;20484;-64
2022/04/10 10:22:02;;;;;;;5.20;3.60;;;17.40;20.70;;;;;;5094595;28;20921;-66
2022/04/10 10:24:36;;;;;;;4.80;3.10;;;16.90;21.00;;;;;;5099236;28;20430;-64
2022/04/10 10:27:35;;;;;;;3.50;3.10;;;16.30;21.20;;;;;;5096197;28;20469;-64
2022/04/10 10:30:18;;;;;;;4.40;2.87;;;15.80;23.10;;;;;;5079906;28;20536;-64
2022/04/10 10:32:48;;;;;;;7.90;3.07;;;15.40;23.80;;;;;;5092612;28;20926;-64
2022/04/10 10:35:29;;;;;;;5.90;3.47;;;15.20;23.90;;;;;;5094955;28;20439;-64
2022/04/10 10:37:56;;;;;;;6.43;3.30;;;15.00;23.80;;;;;;5094995;28;20438;-64
2022/04/10 10:40:25;;;;;;;8.10;4.43;;;14.90;24.50;;;;;;5096629;28;20487;-64
2022/04/10 10:42:52;;;;;;;5.63;2.80;;;14.90;24.70;;;;;;5093611;28;20526;-64
2022/04/10 10:45:37;;;;;;;4.43;2.83;;;14.90;24.70;;;;;;5093992;28;20466;-65
2022/04/10 10:48:25;;;;;;;5.80;3.17;;;14.90;25.40;;;;;;5093776;28;20431;-63
2022/04/10 10:50:53;;;;;;;3.50;2.80;;;15.90;26.30;;;;;;5090981;28;21025;-64
2022/04/10 10:53:42;;;;;;;4.80;2.63;;;16.20;23.40;;;;;;5092892;28;20439;-64
2022/04/10 10:56:15;;;;;;;3.93;2.67;;;15.90;23.10;;;;;;5091573;28;20443;-64
2022/04/10 10:58:43;;;;;;;8.00;3.03;;;15.60;23.50;;;;;;5092939;28;20524;-64
2022/04/10 11:01:16;;;;;;;5.10;3.23;;;15.20;23.50;;;;;;5093422;28;20431;-64
2022/04/10 11:04:02;;;;;;;6.20;2.00;;;14.70;24.00;;;;;;5093445;28;20886;-64
2022/04/10 11:06:30;;;;;;;3.07;2.20;;;14.10;24.30;;;;;;5093278;28;20443;-63
2022/04/10 11:09:20;;;;;;;2.80;2.00;;;13.50;24.50;;;;;;5093146;28;20810;-64
2022/04/10 11:11:49;;;;;;;3.10;1.83;;;13.00;24.50;;;;;;5092069;28;20523;-63
2022/04/10 11:14:33;;;;;;;4.50;2.90;;;12.70;25.40;;;;;;5092940;28;20189;-63
2022/04/10 11:17:14;;;;;;;5.53;2.65;;;12.30;25.90;;;;;;5092616;28;20217;-63
2022/04/10 11:19:44;;;;;;;4.50;2.60;;;12.00;26.90;;;;;;5093310;28;20215;-63
2022/04/10 11:22:16;;;;;;;4.20;2.67;;;11.80;27.60;;;;;;5093471;28;20217;-63
2022/04/10 11:24:45;;;;;;;3.38;2.30;;;11.80;28.30;;;;;;5093828;28;20186;-63
2022/04/10 11:27:14;;;;;;;6.90;3.08;;;11.70;28.60;;;;;;5093097;28;20197;-63
2022/04/10 11:29:55;;;;;;;4.28;2.38;;;11.70;27.70;;;;;;5094360;28;20234;-63
2022/04/10 11:32:22;;;;;;;6.82;3.17;;;11.70;27.80;;;;;;5090529;28;20241;-64
2022/04/10 11:35:00;;;;;;;4.30;2.17;;;11.70;28.80;;;;;;5093182;28;20217;-64
2022/04/10 11:37:40;;;;;;;3.53;2.20;;;12.30;30.30;;;;;;5094034;28;20595;-64
2022/04/10 11:40:10;;;;;;;5.10;1.85;;;13.30;30.10;;;;;;5091994;28;20238;-65
2022/04/10 11:42:38;;;;;;;4.00;1.70;;;14.10;26.70;;;;;;5089025;28;20213;-63
2022/04/10 11:45:07;;;;;;;2.60;1.40;;;14.60;25.40;;;;;;5092895;28;20192;-64
2022/04/10 11:47:37;;;;;;;3.17;2.20;;;15.30;26.40;;;;;;5092127;28;20435;-65
2022/04/10 11:50:07;;;;;;;4.93;2.90;;;15.90;25.00;;;;;;5092537;28;20940;-63
2022/04/10 11:52:34;;;;;;;4.53;2.30;;;16.10;22.00;;;;;;5092446;28;20431;-64
2022/04/10 11:55:04;;;;;;;2.93;1.90;;;16.20;22.50;;;;;;5092266;28;20450;-65
2022/04/10 11:57:32;;;;;;;3.30;2.60;;;16.30;23.30;;;;;;5088043;28;20443;-64
2022/04/10 12:00:01;;;;;;;2.70;2.10;;;16.30;23.20;;;;;;5092313;28;20488;-64
2022/04/10 12:02:29;;;;;;;3.60;2.50;;;16.00;23.10;;;;;;5092092;28;20593;-64
2022/04/10 12:05:03;;;;;;;4.13;2.00;;;15.90;22.70;;;;;;5092099;28;20788;-64
2022/04/10 12:07:30;;;;;;;4.83;2.80;;;15.60;22.70;;;;;;5093045;28;20439;-65
2022/04/10 12:09:57;;;;;;;4.57;2.10;;;15.50;23.70;;;;;;5094216;28;20526;-64
2022/04/10 12:12:34;;;;;;;4.60;3.00;;;15.50;22.70;;;;;;5093977;28;20489;-63
2022/04/10 12:15:02;;;;;;;4.00;3.00;;;15.10;22.90;;;;;;5088988;28;20514;-63
2022/04/10 12:17:29;;;;;;;3.67;2.30;;;14.50;24.10;;;;;;5110120;28;20550;-63
2022/04/10 12:19:57;;;;;;;3.93;2.27;;;13.90;24.60;;;;;;5103282;28;20471;-63
2022/04/10 12:22:24;;;;;;;4.63;3.27;;;13.40;24.70;;;;;;5114084;28;20517;-64
2022/04/10 12:24:58;;;;;;;2.70;2.00;;;13.20;25.10;;;;;;5113762;28;20438;-63
2022/04/10 12:27:25;;;;;;;3.03;1.87;;;13.10;25.50;;;;;;5113924;28;20562;-64
2022/04/10 12:29:53;;;;;;;5.32;2.65;;;12.90;25.80;;;;;;5113788;28;21118;-63
2022/04/10 12:32:21;;;;;;;3.97;2.15;;;12.50;26.80;;;;;;5114169;28;20282;-63
2022/04/10 12:34:48;;;;;;;3.42;2.50;;;12.20;27.90;;;;;;5114090;28;20224;-64
2022/04/10 12:37:18;;;;;;;4.60;2.30;;;11.90;30.00;;;;;;5113581;28;20223;-65
2022/04/10 12:39:48;;;;;;;5.55;2.80;;;11.50;31.30;;;;;;5113927;28;20270;-64
2022/04/10 12:42:19;;;;;;;7.40;4.47;;;11.30;31.20;;;;;;5113898;28;20559;-63
2022/04/10 12:44:56;;;;;;;10.10;4.80;;;11.10;32.20;;;;;;5114064;28;20270;-64
2022/04/10 12:47:43;;;;;;;16.38;8.73;;;10.90;32.30;;;;;;5113790;28;20191;-63
2022/04/10 12:50:12;;;;;;;4.57;3.55;;;10.70;32.10;;;;;;5112548;28;20275;-63
2022/04/10 12:52:40;;;;;;;4.05;3.03;;;10.50;33.10;;;;;;5093127;28;20708;-63
2022/04/10 12:55:19;;;;;;;5.65;3.45;;;10.40;34.10;;;;;;5091377;28;20193;-65
2022/04/10 12:57:56;;;;;;;3.78;2.72;;;10.30;34.90;;;;;;5088314;28;20196;-64
2022/04/10 13:00:28;;;;;;;3.67;2.88;;;10.10;35.80;;;;;;5089386;28;20191;-63
2022/04/10 13:02:59;;;;;;;2.95;1.70;;;10.00;36.00;;;;;;5091227;28;20258;-63
2022/04/10 13:05:26;;;;;;;3.53;2.15;;;10.00;36.90;;;;;;5091045;28;20188;-63
2022/04/10 13:08:03;;;;;;;3.42;2.10;;;10.10;37.50;;;;;;5090617;28;20643;-63
2022/04/10 13:10:31;;;;;;;3.60;2.20;;;10.20;36.60;;;;;;5091278;28;20188;-63